sensor_id;sensor_type;location;lat;lon;timestamp;temperature;humidity
46784;DHT22;32544;52.832;13.816;2022-08-19T00:00:43;27.90;60.40
46784;DHT22;32544;52.832;13.816;2022-08-19T00:01:46;27.90;60.40
46784;DHT22;32544;52.832;13.816;2022-08-19T00:02:46;27.90;60.40
46784;DHT22;32544;52.832;13.816;2022-08-19T00:03:47;27.90;60.30
46784;DHT22;32544;52.832;13.816;2022-08-19T00:04:48;27.90;60.20
46784;DHT22;32544;52.832;13.816;2022-08-19T00:05:52;27.90;60.20
46784;DHT22;32544;52.832;13.816;2022-08-19T00:06:53;27.90;60.20
46784;DHT22;32544;52.832;13.816;2022-08-19T00:07:54;27.90;60.20
46784;DHT22;32544;52.832;13.816;2022-08-19T00:08:55;27.90;60.20
46784;DHT22;32544;52.832;13.816;2022-08-19T00:09:56;27.90;60.20
46784;DHT22;32544;52.832;13.816;2022-08-19T00:10:57;27.90;60.20
46784;DHT22;32544;52.832;13.816;2022-08-19T00:11:58;27.90;60.90
46784;DHT22;32544;52.832;13.816;2022-08-19T00:12:58;27.90;60.10
46784;DHT22;32544;52.832;13.816;2022-08-19T00:13:59;27.90;60.20
46784;DHT22;32544;52.832;13.816;2022-08-19T00:14:59;27.90;60.20
46784;DHT22;32544;52.832;13.816;2022-08-19T00:16:00;27.90;60.20
46784;DHT22;32544;52.832;13.816;2022-08-19T00:17:01;27.90;60.20
46784;DHT22;32544;52.832;13.816;2022-08-19T00:18:03;27.90;60.20
46784;DHT22;32544;52.832;13.816;2022-08-19T00:19:04;27.90;60.20
46784;DHT22;32544;52.832;13.816;2022-08-19T00:20:05;27.90;60.20
46784;DHT22;32544;52.832;13.816;2022-08-19T00:21:06;27.90;60.20
46784;DHT22;32544;52.832;13.816;2022-08-19T00:22:08;27.90;60.20
46784;DHT22;32544;52.832;13.816;2022-08-19T00:23:10;27.90;60.30
46784;DHT22;32544;52.832;13.816;2022-08-19T00:24:11;27.90;60.30
46784;DHT22;32544;52.832;13.816;2022-08-19T00:25:12;27.90;60.30
46784;DHT22;32544;52.832;13.816;2022-08-19T00:26:14;27.90;60.40
46784;DHT22;32544;52.832;13.816;2022-08-19T00:27:14;27.90;60.30
46784;DHT22;32544;52.832;13.816;2022-08-19T00:28:15;27.90;60.30
46784;DHT22;32544;52.832;13.816;2022-08-19T00:29:17;27.90;60.30
46784;DHT22;32544;52.832;13.816;2022-08-19T00:30:17;27.90;60.20
46784;DHT22;32544;52.832;13.816;2022-08-19T00:31:18;27.90;60.20
46784;DHT22;32544;52.832;13.816;2022-08-19T00:32:19;27.90;60.20
46784;DHT22;32544;52.832;13.816;2022-08-19T00:33:20;27.90;60.20
46784;DHT22;32544;52.832;13.816;2022-08-19T00:34:21;27.90;60.10
46784;DHT22;32544;52.832;13.816;2022-08-19T00:35:21;27.90;60.10
46784;DHT22;32544;52.832;13.816;2022-08-19T00:36:22;27.90;60.10
46784;DHT22;32544;52.832;13.816;2022-08-19T00:37:23;27.90;60.20
46784;DHT22;32544;52.832;13.816;2022-08-19T00:38:26;27.90;60.30
46784;DHT22;32544;52.832;13.816;2022-08-19T00:39:26;27.90;60.30
46784;DHT22;32544;52.832;13.816;2022-08-19T00:40:27;27.90;60.30
46784;DHT22;32544;52.832;13.816;2022-08-19T00:41:28;27.90;60.30
46784;DHT22;32544;52.832;13.816;2022-08-19T00:42:28;27.90;60.40
46784;DHT22;32544;52.832;13.816;2022-08-19T00:43:29;27.90;60.40
46784;DHT22;32544;52.832;13.816;2022-08-19T00:44:30;27.90;60.40
46784;DHT22;32544;52.832;13.816;2022-08-19T00:45:30;27.90;60.40
46784;DHT22;32544;52.832;13.816;2022-08-19T00:46:32;27.90;60.40
46784;DHT22;32544;52.832;13.816;2022-08-19T00:47:33;27.90;60.40
46784;DHT22;32544;52.832;13.816;2022-08-19T00:48:34;27.90;60.30
46784;DHT22;32544;52.832;13.816;2022-08-19T00:49:57;27.90;60.50
46784;DHT22;32544;52.832;13.816;2022-08-19T00:50:57;27.90;60.40
46784;DHT22;32544;52.832;13.816;2022-08-19T00:52:04;27.90;60.40
46784;DHT22;32544;52.832;13.816;2022-08-19T00:53:06;27.90;60.40
46784;DHT22;32544;52.832;13.816;2022-08-19T00:54:07;27.90;60.40
46784;DHT22;32544;52.832;13.816;2022-08-19T00:55:09;27.90;60.40
46784;DHT22;32544;52.832;13.816;2022-08-19T00:56:12;27.90;60.50
46784;DHT22;32544;52.832;13.816;2022-08-19T00:57:15;27.90;60.40
46784;DHT22;32544;52.832;13.816;2022-08-19T00:58:17;27.90;60.50
46784;DHT22;32544;52.832;13.816;2022-08-19T00:59:19;27.90;60.50
46784;DHT22;32544;52.832;13.816;2022-08-19T01:00:20;27.90;60.60
46784;DHT22;32544;52.832;13.816;2022-08-19T01:01:21;27.90;60.70
46784;DHT22;32544;52.832;13.816;2022-08-19T01:02:22;27.80;60.80
46784;DHT22;32544;52.832;13.816;2022-08-19T01:03:23;27.80;60.90
46784;DHT22;32544;52.832;13.816;2022-08-19T01:04:24;27.70;60.90
46784;DHT22;32544;52.832;13.816;2022-08-19T01:05:25;27.70;60.90
46784;DHT22;32544;52.832;13.816;2022-08-19T01:06:27;27.70;60.90
46784;DHT22;32544;52.832;13.816;2022-08-19T01:07:28;27.70;61.00
46784;DHT22;32544;52.832;13.816;2022-08-19T01:08:29;27.70;60.90
46784;DHT22;32544;52.832;13.816;2022-08-19T01:09:30;27.70;60.80
46784;DHT22;32544;52.832;13.816;2022-08-19T01:10:32;27.70;61.00
46784;DHT22;32544;52.832;13.816;2022-08-19T01:11:35;27.70;60.90
46784;DHT22;32544;52.832;13.816;2022-08-19T01:12:36;27.70;60.90
46784;DHT22;32544;52.832;13.816;2022-08-19T01:13:37;27.70;60.90
46784;DHT22;32544;52.832;13.816;2022-08-19T01:14:39;27.70;60.90
46784;DHT22;32544;52.832;13.816;2022-08-19T01:15:41;27.70;60.90
46784;DHT22;32544;52.832;13.816;2022-08-19T01:16:43;27.70;60.90
46784;DHT22;32544;52.832;13.816;2022-08-19T01:17:45;27.70;61.00
46784;DHT22;32544;52.832;13.816;2022-08-19T01:18:47;27.70;60.90
46784;DHT22;32544;52.832;13.816;2022-08-19T01:19:48;27.70;60.80
46784;DHT22;32544;52.832;13.816;2022-08-19T01:20:49;27.70;60.80
46784;DHT22;32544;52.832;13.816;2022-08-19T01:22:12;27.70;60.80
46784;DHT22;32544;52.832;13.816;2022-08-19T01:23:14;27.70;60.90
46784;DHT22;32544;52.832;13.816;2022-08-19T01:24:15;27.50;61.30
46784;DHT22;32544;52.832;13.816;2022-08-19T01:25:18;27.50;61.60
46784;DHT22;32544;52.832;13.816;2022-08-19T01:26:20;27.40;61.80
46784;DHT22;32544;52.832;13.816;2022-08-19T01:27:21;27.50;61.70
46784;DHT22;32544;52.832;13.816;2022-08-19T01:28:23;27.40;61.60
46784;DHT22;32544;52.832;13.816;2022-08-19T01:29:25;27.50;61.70
46784;DHT22;32544;52.832;13.816;2022-08-19T01:30:28;27.50;61.50
46784;DHT22;32544;52.832;13.816;2022-08-19T01:31:30;27.50;61.40
46784;DHT22;32544;52.832;13.816;2022-08-19T01:32:31;27.50;61.20
46784;DHT22;32544;52.832;13.816;2022-08-19T01:33:32;27.50;61.10
46784;DHT22;32544;52.832;13.816;2022-08-19T01:34:32;27.60;61.20
46784;DHT22;32544;52.832;13.816;2022-08-19T01:35:34;27.60;61.30
46784;DHT22;32544;52.832;13.816;2022-08-19T01:36:37;27.60;61.00
46784;DHT22;32544;52.832;13.816;2022-08-19T01:37:42;27.60;60.90
46784;DHT22;32544;52.832;13.816;2022-08-19T01:38:42;27.60;60.90
46784;DHT22;32544;52.832;13.816;2022-08-19T01:39:43;27.70;60.90
46784;DHT22;32544;52.832;13.816;2022-08-19T01:40:44;27.60;60.90
46784;DHT22;32544;52.832;13.816;2022-08-19T01:41:45;27.60;61.10
46784;DHT22;32544;52.832;13.816;2022-08-19T01:42:47;27.60;61.10
46784;DHT22;32544;52.832;13.816;2022-08-19T01:43:48;27.50;61.00
46784;DHT22;32544;52.832;13.816;2022-08-19T01:44:49;27.50;61.10
46784;DHT22;32544;52.832;13.816;2022-08-19T01:45:50;27.50;61.30
46784;DHT22;32544;52.832;13.816;2022-08-19T01:46:51;27.50;61.40
46784;DHT22;32544;52.832;13.816;2022-08-19T01:47:52;27.40;61.50
46784;DHT22;32544;52.832;13.816;2022-08-19T01:48:53;27.40;61.70
46784;DHT22;32544;52.832;13.816;2022-08-19T01:49:54;27.40;62.00
46784;DHT22;32544;52.832;13.816;2022-08-19T01:50:54;27.30;61.80
46784;DHT22;32544;52.832;13.816;2022-08-19T01:51:56;27.30;61.80
46784;DHT22;32544;52.832;13.816;2022-08-19T01:52:56;27.40;61.60
46784;DHT22;32544;52.832;13.816;2022-08-19T01:53:57;27.40;61.50
46784;DHT22;32544;52.832;13.816;2022-08-19T01:54:58;27.50;61.40
46784;DHT22;32544;52.832;13.816;2022-08-19T01:55:59;27.50;61.30
46784;DHT22;32544;52.832;13.816;2022-08-19T01:57:03;27.50;61.20
46784;DHT22;32544;52.832;13.816;2022-08-19T01:58:05;27.50;61.20
46784;DHT22;32544;52.832;13.816;2022-08-19T01:59:08;27.50;61.20
46784;DHT22;32544;52.832;13.816;2022-08-19T02:00:11;27.50;61.10
46784;DHT22;32544;52.832;13.816;2022-08-19T02:01:12;27.50;61.10
46784;DHT22;32544;52.832;13.816;2022-08-19T02:02:14;27.60;61.10
46784;DHT22;32544;52.832;13.816;2022-08-19T02:03:14;27.60;61.10
46784;DHT22;32544;52.832;13.816;2022-08-19T02:04:16;27.50;61.10
46784;DHT22;32544;52.832;13.816;2022-08-19T02:05:16;27.50;61.10
46784;DHT22;32544;52.832;13.816;2022-08-19T02:06:19;27.60;61.10
46784;DHT22;32544;52.832;13.816;2022-08-19T02:07:20;27.50;61.30
46784;DHT22;32544;52.832;13.816;2022-08-19T02:08:22;27.50;61.10
46784;DHT22;32544;52.832;13.816;2022-08-19T02:09:22;27.60;61.10
46784;DHT22;32544;52.832;13.816;2022-08-19T02:10:23;27.60;61.00
46784;DHT22;32544;52.832;13.816;2022-08-19T02:11:25;27.60;61.00
46784;DHT22;32544;52.832;13.816;2022-08-19T02:12:26;27.60;60.90
46784;DHT22;32544;52.832;13.816;2022-08-19T02:13:27;27.60;60.90
46784;DHT22;32544;52.832;13.816;2022-08-19T02:14:28;27.60;61.00
46784;DHT22;32544;52.832;13.816;2022-08-19T02:15:28;27.50;61.00
46784;DHT22;32544;52.832;13.816;2022-08-19T02:16:29;27.50;61.20
46784;DHT22;32544;52.832;13.816;2022-08-19T02:17:30;27.40;61.40
46784;DHT22;32544;52.832;13.816;2022-08-19T02:18:31;27.30;61.50
46784;DHT22;32544;52.832;13.816;2022-08-19T02:19:33;27.40;61.50
46784;DHT22;32544;52.832;13.816;2022-08-19T02:20:35;27.40;61.40
46784;DHT22;32544;52.832;13.816;2022-08-19T02:21:36;27.40;61.30
46784;DHT22;32544;52.832;13.816;2022-08-19T02:22:37;27.50;61.30
46784;DHT22;32544;52.832;13.816;2022-08-19T02:23:39;27.50;61.20
46784;DHT22;32544;52.832;13.816;2022-08-19T02:24:39;27.50;61.10
46784;DHT22;32544;52.832;13.816;2022-08-19T02:25:40;27.50;61.00
46784;DHT22;32544;52.832;13.816;2022-08-19T02:26:41;27.50;61.00
46784;DHT22;32544;52.832;13.816;2022-08-19T02:27:42;27.50;61.40
46784;DHT22;32544;52.832;13.816;2022-08-19T02:28:43;27.30;61.70
46784;DHT22;32544;52.832;13.816;2022-08-19T02:29:45;27.30;61.80
46784;DHT22;32544;52.832;13.816;2022-08-19T02:30:47;27.30;61.80
46784;DHT22;32544;52.832;13.816;2022-08-19T02:31:47;27.30;61.70
46784;DHT22;32544;52.832;13.816;2022-08-19T02:32:48;27.30;61.60
46784;DHT22;32544;52.832;13.816;2022-08-19T02:33:49;27.30;61.50
46784;DHT22;32544;52.832;13.816;2022-08-19T02:34:50;27.40;61.40
46784;DHT22;32544;52.832;13.816;2022-08-19T02:35:51;27.40;61.40
46784;DHT22;32544;52.832;13.816;2022-08-19T02:36:51;27.40;61.20
46784;DHT22;32544;52.832;13.816;2022-08-19T02:37:52;27.50;61.30
46784;DHT22;32544;52.832;13.816;2022-08-19T02:39:11;27.50;61.10
46784;DHT22;32544;52.832;13.816;2022-08-19T02:40:12;27.50;61.00
46784;DHT22;32544;52.832;13.816;2022-08-19T02:41:14;27.50;61.00
46784;DHT22;32544;52.832;13.816;2022-08-19T02:42:15;27.50;61.00
46784;DHT22;32544;52.832;13.816;2022-08-19T02:43:16;27.50;60.80
46784;DHT22;32544;52.832;13.816;2022-08-19T02:44:16;27.50;60.80
46784;DHT22;32544;52.832;13.816;2022-08-19T02:45:17;27.50;60.80
46784;DHT22;32544;52.832;13.816;2022-08-19T02:46:19;27.50;60.90
46784;DHT22;32544;52.832;13.816;2022-08-19T02:47:21;27.50;60.90
46784;DHT22;32544;52.832;13.816;2022-08-19T02:48:22;27.50;60.90
46784;DHT22;32544;52.832;13.816;2022-08-19T02:49:24;27.40;61.20
46784;DHT22;32544;52.832;13.816;2022-08-19T02:50:24;27.40;61.30
46784;DHT22;32544;52.832;13.816;2022-08-19T02:51:36;27.30;61.40
46784;DHT22;32544;52.832;13.816;2022-08-19T02:52:37;27.30;61.50
46784;DHT22;32544;52.832;13.816;2022-08-19T02:53:37;27.30;61.40
46784;DHT22;32544;52.832;13.816;2022-08-19T02:54:38;27.40;61.40
46784;DHT22;32544;52.832;13.816;2022-08-19T02:55:43;27.40;61.40
46784;DHT22;32544;52.832;13.816;2022-08-19T02:56:44;27.40;61.30
46784;DHT22;32544;52.832;13.816;2022-08-19T02:57:44;27.50;61.30
46784;DHT22;32544;52.832;13.816;2022-08-19T02:58:45;27.40;61.20
46784;DHT22;32544;52.832;13.816;2022-08-19T02:59:46;27.40;61.20
46784;DHT22;32544;52.832;13.816;2022-08-19T03:00:48;27.40;61.30
46784;DHT22;32544;52.832;13.816;2022-08-19T03:01:49;27.40;61.20
46784;DHT22;32544;52.832;13.816;2022-08-19T03:02:50;27.40;61.30
46784;DHT22;32544;52.832;13.816;2022-08-19T03:03:52;27.40;61.10
46784;DHT22;32544;52.832;13.816;2022-08-19T03:04:53;27.40;61.00
46784;DHT22;32544;52.832;13.816;2022-08-19T03:06:03;27.40;61.00
46784;DHT22;32544;52.832;13.816;2022-08-19T03:07:04;27.40;61.00
46784;DHT22;32544;52.832;13.816;2022-08-19T03:08:05;27.40;61.00
46784;DHT22;32544;52.832;13.816;2022-08-19T03:09:06;27.30;61.20
46784;DHT22;32544;52.832;13.816;2022-08-19T03:10:07;27.30;61.20
46784;DHT22;32544;52.832;13.816;2022-08-19T03:12:15;27.30;61.00
46784;DHT22;32544;52.832;13.816;2022-08-19T03:13:17;27.40;61.00
46784;DHT22;32544;52.832;13.816;2022-08-19T03:14:18;27.30;61.00
46784;DHT22;32544;52.832;13.816;2022-08-19T03:15:18;27.20;61.10
46784;DHT22;32544;52.832;13.816;2022-08-19T03:16:19;27.30;61.30
46784;DHT22;32544;52.832;13.816;2022-08-19T03:17:20;27.20;61.20
46784;DHT22;32544;52.832;13.816;2022-08-19T03:18:21;27.30;61.20
46784;DHT22;32544;52.832;13.816;2022-08-19T03:19:21;27.30;61.00
46784;DHT22;32544;52.832;13.816;2022-08-19T03:20:22;27.30;60.90
46784;DHT22;32544;52.832;13.816;2022-08-19T03:21:23;27.40;60.90
46784;DHT22;32544;52.832;13.816;2022-08-19T03:22:24;27.40;60.80
46784;DHT22;32544;52.832;13.816;2022-08-19T03:23:25;27.40;60.70
46784;DHT22;32544;52.832;13.816;2022-08-19T03:24:26;27.40;60.60
46784;DHT22;32544;52.832;13.816;2022-08-19T03:25:26;27.40;60.50
46784;DHT22;32544;52.832;13.816;2022-08-19T03:26:27;27.40;60.50
46784;DHT22;32544;52.832;13.816;2022-08-19T03:27:28;27.40;60.60
46784;DHT22;32544;52.832;13.816;2022-08-19T03:28:29;27.30;60.80
46784;DHT22;32544;52.832;13.816;2022-08-19T03:29:30;27.30;60.90
46784;DHT22;32544;52.832;13.816;2022-08-19T03:30:31;27.30;60.80
46784;DHT22;32544;52.832;13.816;2022-08-19T03:31:32;27.30;60.70
46784;DHT22;32544;52.832;13.816;2022-08-19T03:32:33;27.40;60.70
46784;DHT22;32544;52.832;13.816;2022-08-19T03:33:34;27.40;60.60
46784;DHT22;32544;52.832;13.816;2022-08-19T03:34:36;27.40;60.50
46784;DHT22;32544;52.832;13.816;2022-08-19T03:35:36;27.40;60.60
46784;DHT22;32544;52.832;13.816;2022-08-19T03:36:37;27.40;60.70
46784;DHT22;32544;52.832;13.816;2022-08-19T03:37:38;27.40;60.70
46784;DHT22;32544;52.832;13.816;2022-08-19T03:38:42;27.40;60.60
46784;DHT22;32544;52.832;13.816;2022-08-19T03:39:43;27.40;60.60
46784;DHT22;32544;52.832;13.816;2022-08-19T03:40:44;27.50;60.60
46784;DHT22;32544;52.832;13.816;2022-08-19T03:41:46;27.40;60.40
46784;DHT22;32544;52.832;13.816;2022-08-19T03:42:47;27.50;60.50
46784;DHT22;32544;52.832;13.816;2022-08-19T03:43:48;27.50;60.50
46784;DHT22;32544;52.832;13.816;2022-08-19T03:44:49;27.50;60.50
46784;DHT22;32544;52.832;13.816;2022-08-19T03:45:58;27.50;60.60
46784;DHT22;32544;52.832;13.816;2022-08-19T03:46:59;27.40;60.60
46784;DHT22;32544;52.832;13.816;2022-08-19T03:48:00;27.40;60.60
46784;DHT22;32544;52.832;13.816;2022-08-19T03:49:02;27.40;60.60
46784;DHT22;32544;52.832;13.816;2022-08-19T03:50:07;27.40;60.70
46784;DHT22;32544;52.832;13.816;2022-08-19T03:51:16;27.40;61.30
46784;DHT22;32544;52.832;13.816;2022-08-19T03:52:17;27.40;60.50
46784;DHT22;32544;52.832;13.816;2022-08-19T03:53:17;27.40;60.60
46784;DHT22;32544;52.832;13.816;2022-08-19T03:54:19;27.40;60.60
46784;DHT22;32544;52.832;13.816;2022-08-19T03:55:20;27.40;60.60
46784;DHT22;32544;52.832;13.816;2022-08-19T03:56:21;27.40;60.60
46784;DHT22;32544;52.832;13.816;2022-08-19T03:57:22;27.30;60.60
46784;DHT22;32544;52.832;13.816;2022-08-19T03:58:23;27.30;60.80
46784;DHT22;32544;52.832;13.816;2022-08-19T03:59:25;27.30;60.60
46784;DHT22;32544;52.832;13.816;2022-08-19T04:00:26;27.40;60.60
46784;DHT22;32544;52.832;13.816;2022-08-19T04:01:27;27.40;60.50
46784;DHT22;32544;52.832;13.816;2022-08-19T04:02:28;27.40;60.50
46784;DHT22;32544;52.832;13.816;2022-08-19T04:03:29;27.40;60.30
46784;DHT22;32544;52.832;13.816;2022-08-19T04:04:30;27.40;60.20
46784;DHT22;32544;52.832;13.816;2022-08-19T04:05:30;27.50;60.30
46784;DHT22;32544;52.832;13.816;2022-08-19T04:06:32;27.40;60.10
46784;DHT22;32544;52.832;13.816;2022-08-19T04:07:33;27.50;60.20
46784;DHT22;32544;52.832;13.816;2022-08-19T04:08:33;27.50;60.20
46784;DHT22;32544;52.832;13.816;2022-08-19T04:09:35;27.50;60.10
46784;DHT22;32544;52.832;13.816;2022-08-19T04:10:37;27.50;60.10
46784;DHT22;32544;52.832;13.816;2022-08-19T04:11:42;27.50;60.00
46784;DHT22;32544;52.832;13.816;2022-08-19T04:12:43;27.50;60.00
46784;DHT22;32544;52.832;13.816;2022-08-19T04:13:44;27.50;60.00
46784;DHT22;32544;52.832;13.816;2022-08-19T04:14:44;27.50;60.00
46784;DHT22;32544;52.832;13.816;2022-08-19T04:15:45;27.50;60.10
46784;DHT22;32544;52.832;13.816;2022-08-19T04:16:47;27.40;60.00
46784;DHT22;32544;52.832;13.816;2022-08-19T04:17:48;27.40;60.20
46784;DHT22;32544;52.832;13.816;2022-08-19T04:18:48;27.30;60.20
46784;DHT22;32544;52.832;13.816;2022-08-19T04:19:49;27.30;60.30
46784;DHT22;32544;52.832;13.816;2022-08-19T04:20:50;27.30;60.30
46784;DHT22;32544;52.832;13.816;2022-08-19T04:21:51;27.20;61.20
46784;DHT22;32544;52.832;13.816;2022-08-19T04:22:53;27.20;60.50
46784;DHT22;32544;52.832;13.816;2022-08-19T04:23:54;27.20;60.60
46784;DHT22;32544;52.832;13.816;2022-08-19T04:24:55;27.10;60.60
46784;DHT22;32544;52.832;13.816;2022-08-19T04:25:55;27.10;60.70
46784;DHT22;32544;52.832;13.816;2022-08-19T04:26:56;27.10;60.60
46784;DHT22;32544;52.832;13.816;2022-08-19T04:27:56;27.20;60.70
46784;DHT22;32544;52.832;13.816;2022-08-19T04:28:58;27.20;60.50
46784;DHT22;32544;52.832;13.816;2022-08-19T04:29:58;27.20;60.40
46784;DHT22;32544;52.832;13.816;2022-08-19T04:30:59;27.20;60.40
46784;DHT22;32544;52.832;13.816;2022-08-19T04:32:00;27.30;60.40
46784;DHT22;32544;52.832;13.816;2022-08-19T04:33:01;27.30;60.30
46784;DHT22;32544;52.832;13.816;2022-08-19T04:34:02;27.30;60.30
46784;DHT22;32544;52.832;13.816;2022-08-19T04:35:03;27.30;60.30
46784;DHT22;32544;52.832;13.816;2022-08-19T04:36:04;27.30;60.30
46784;DHT22;32544;52.832;13.816;2022-08-19T04:37:05;27.30;60.30
46784;DHT22;32544;52.832;13.816;2022-08-19T04:38:12;27.30;60.20
46784;DHT22;32544;52.832;13.816;2022-08-19T04:39:14;27.40;60.20
46784;DHT22;32544;52.832;13.816;2022-08-19T04:40:15;27.40;60.10
46784;DHT22;32544;52.832;13.816;2022-08-19T04:41:34;27.40;60.10
46784;DHT22;32544;52.832;13.816;2022-08-19T04:42:53;27.40;60.10
46784;DHT22;32544;52.832;13.816;2022-08-19T04:43:54;27.40;60.10
46784;DHT22;32544;52.832;13.816;2022-08-19T04:44:55;27.40;60.10
46784;DHT22;32544;52.832;13.816;2022-08-19T04:45:55;27.40;60.10
46784;DHT22;32544;52.832;13.816;2022-08-19T04:46:56;27.40;60.00
46784;DHT22;32544;52.832;13.816;2022-08-19T04:47:57;27.40;60.00
46784;DHT22;32544;52.832;13.816;2022-08-19T04:48:58;27.40;59.90
46784;DHT22;32544;52.832;13.816;2022-08-19T04:49:59;27.40;60.00
46784;DHT22;32544;52.832;13.816;2022-08-19T04:51:00;27.40;60.00
46784;DHT22;32544;52.832;13.816;2022-08-19T04:52:00;27.40;60.00
46784;DHT22;32544;52.832;13.816;2022-08-19T04:53:01;27.40;60.10
46784;DHT22;32544;52.832;13.816;2022-08-19T04:54:02;27.30;60.30
46784;DHT22;32544;52.832;13.816;2022-08-19T04:55:03;27.30;60.30
46784;DHT22;32544;52.832;13.816;2022-08-19T04:56:08;27.30;60.20
46784;DHT22;32544;52.832;13.816;2022-08-19T04:57:09;27.30;60.50
46784;DHT22;32544;52.832;13.816;2022-08-19T04:58:10;27.20;60.70
46784;DHT22;32544;52.832;13.816;2022-08-19T04:59:10;27.20;60.90
46784;DHT22;32544;52.832;13.816;2022-08-19T05:00:12;27.20;60.90
46784;DHT22;32544;52.832;13.816;2022-08-19T05:01:13;27.20;60.90
46784;DHT22;32544;52.832;13.816;2022-08-19T05:02:14;27.20;60.90
46784;DHT22;32544;52.832;13.816;2022-08-19T05:03:15;27.10;61.10
46784;DHT22;32544;52.832;13.816;2022-08-19T05:04:18;27.20;61.10
46784;DHT22;32544;52.832;13.816;2022-08-19T05:05:19;27.20;61.10
46784;DHT22;32544;52.832;13.816;2022-08-19T05:06:20;27.20;61.00
46784;DHT22;32544;52.832;13.816;2022-08-19T05:07:21;27.20;60.90
46784;DHT22;32544;52.832;13.816;2022-08-19T05:08:22;27.20;60.90
46784;DHT22;32544;52.832;13.816;2022-08-19T05:09:22;27.30;60.90
46784;DHT22;32544;52.832;13.816;2022-08-19T05:10:23;27.30;60.90
46784;DHT22;32544;52.832;13.816;2022-08-19T05:11:28;27.20;60.90
46784;DHT22;32544;52.832;13.816;2022-08-19T05:12:29;27.20;60.90
46784;DHT22;32544;52.832;13.816;2022-08-19T05:13:29;27.20;61.20
46784;DHT22;32544;52.832;13.816;2022-08-19T05:14:30;27.20;61.20
46784;DHT22;32544;52.832;13.816;2022-08-19T05:15:31;27.10;61.50
46784;DHT22;32544;52.832;13.816;2022-08-19T05:16:31;27.20;61.40
46784;DHT22;32544;52.832;13.816;2022-08-19T05:17:32;27.10;61.70
46784;DHT22;32544;52.832;13.816;2022-08-19T05:18:32;27.20;61.50
46784;DHT22;32544;52.832;13.816;2022-08-19T05:19:52;27.20;61.70
46784;DHT22;32544;52.832;13.816;2022-08-19T05:21:12;27.10;61.90
46784;DHT22;32544;52.832;13.816;2022-08-19T05:22:31;27.10;61.90
46784;DHT22;32544;52.832;13.816;2022-08-19T05:23:37;27.00;62.20
46784;DHT22;32544;52.832;13.816;2022-08-19T05:24:38;27.00;62.10
46784;DHT22;32544;52.832;13.816;2022-08-19T05:25:39;27.00;62.10
46784;DHT22;32544;52.832;13.816;2022-08-19T05:26:41;27.00;62.10
46784;DHT22;32544;52.832;13.816;2022-08-19T05:27:42;27.10;62.10
46784;DHT22;32544;52.832;13.816;2022-08-19T05:28:43;27.10;61.90
46784;DHT22;32544;52.832;13.816;2022-08-19T05:29:44;27.10;61.80
46784;DHT22;32544;52.832;13.816;2022-08-19T05:30:44;27.10;61.70
46784;DHT22;32544;52.832;13.816;2022-08-19T05:31:45;27.10;61.90
46784;DHT22;32544;52.832;13.816;2022-08-19T05:32:47;27.10;61.90
46784;DHT22;32544;52.832;13.816;2022-08-19T05:33:47;27.10;61.90
46784;DHT22;32544;52.832;13.816;2022-08-19T05:34:48;27.10;62.20
46784;DHT22;32544;52.832;13.816;2022-08-19T05:35:49;27.10;62.20
46784;DHT22;32544;52.832;13.816;2022-08-19T05:36:51;27.10;62.20
46784;DHT22;32544;52.832;13.816;2022-08-19T05:37:57;27.10;62.10
46784;DHT22;32544;52.832;13.816;2022-08-19T05:38:57;27.20;62.00
46784;DHT22;32544;52.832;13.816;2022-08-19T05:39:58;27.20;62.00
46784;DHT22;32544;52.832;13.816;2022-08-19T05:40:58;27.20;61.80
46784;DHT22;32544;52.832;13.816;2022-08-19T05:42:04;27.20;61.80
46784;DHT22;32544;52.832;13.816;2022-08-19T05:43:07;27.20;61.80
46784;DHT22;32544;52.832;13.816;2022-08-19T05:44:08;27.20;61.90
46784;DHT22;32544;52.832;13.816;2022-08-19T05:45:10;27.20;62.00
46784;DHT22;32544;52.832;13.816;2022-08-19T05:46:16;27.10;62.10
46784;DHT22;32544;52.832;13.816;2022-08-19T05:47:18;27.10;62.10
46784;DHT22;32544;52.832;13.816;2022-08-19T05:48:20;27.20;62.00
46784;DHT22;32544;52.832;13.816;2022-08-19T05:49:21;27.20;62.30
46784;DHT22;32544;52.832;13.816;2022-08-19T05:50:22;27.10;62.60
46784;DHT22;32544;52.832;13.816;2022-08-19T05:51:23;27.10;62.70
46784;DHT22;32544;52.832;13.816;2022-08-19T05:52:25;27.10;62.50
46784;DHT22;32544;52.832;13.816;2022-08-19T05:53:27;27.10;62.40
46784;DHT22;32544;52.832;13.816;2022-08-19T05:54:28;27.20;62.40
46784;DHT22;32544;52.832;13.816;2022-08-19T05:55:28;27.20;62.30
46784;DHT22;32544;52.832;13.816;2022-08-19T05:56:29;27.10;62.50
46784;DHT22;32544;52.832;13.816;2022-08-19T05:57:30;27.10;62.40
46784;DHT22;32544;52.832;13.816;2022-08-19T05:58:31;27.10;62.60
46784;DHT22;32544;52.832;13.816;2022-08-19T05:59:33;27.10;62.60
46784;DHT22;32544;52.832;13.816;2022-08-19T06:00:35;27.10;62.60
46784;DHT22;32544;52.832;13.816;2022-08-19T06:01:37;27.10;62.80
46784;DHT22;32544;52.832;13.816;2022-08-19T06:02:38;27.10;62.70
46784;DHT22;32544;52.832;13.816;2022-08-19T06:03:38;27.10;63.00
46784;DHT22;32544;52.832;13.816;2022-08-19T06:04:39;27.10;63.00
46784;DHT22;32544;52.832;13.816;2022-08-19T06:05:42;27.10;62.80
46784;DHT22;32544;52.832;13.816;2022-08-19T06:06:43;27.10;62.60
46784;DHT22;32544;52.832;13.816;2022-08-19T06:07:44;27.20;62.80
46784;DHT22;32544;52.832;13.816;2022-08-19T06:08:45;27.20;62.60
46784;DHT22;32544;52.832;13.816;2022-08-19T06:09:50;27.20;62.80
46784;DHT22;32544;52.832;13.816;2022-08-19T06:10:50;27.20;62.50
46784;DHT22;32544;52.832;13.816;2022-08-19T06:11:52;27.30;62.60
46784;DHT22;32544;52.832;13.816;2022-08-19T06:12:59;27.30;62.80
46784;DHT22;32544;52.832;13.816;2022-08-19T06:14:00;27.20;62.80
46784;DHT22;32544;52.832;13.816;2022-08-19T06:15:03;27.20;63.20
46784;DHT22;32544;52.832;13.816;2022-08-19T06:16:04;27.20;63.10
46784;DHT22;32544;52.832;13.816;2022-08-19T06:17:05;27.20;63.00
46784;DHT22;32544;52.832;13.816;2022-08-19T06:18:05;27.20;63.00
46784;DHT22;32544;52.832;13.816;2022-08-19T06:19:07;27.20;62.90
46784;DHT22;32544;52.832;13.816;2022-08-19T06:20:09;27.30;62.80
46784;DHT22;32544;52.832;13.816;2022-08-19T06:21:12;27.20;63.30
46784;DHT22;32544;52.832;13.816;2022-08-19T06:22:12;27.20;63.50
46784;DHT22;32544;52.832;13.816;2022-08-19T06:23:13;27.20;63.90
46784;DHT22;32544;52.832;13.816;2022-08-19T06:24:15;27.20;63.80
46784;DHT22;32544;52.832;13.816;2022-08-19T06:25:16;27.10;63.70